sensor_id;sensor_type;location;lat;lon;timestamp;temperature;humidity
23738;DHT22;12049;51.068;3.688;2022-11-02T00:02:12;13.50;99.90
23738;DHT22;12049;51.068;3.688;2022-11-02T00:04:38;13.30;99.90
23738;DHT22;12049;51.068;3.688;2022-11-02T00:07:07;13.30;99.90
23738;DHT22;12049;51.068;3.688;2022-11-02T00:09:32;13.30;99.90
23738;DHT22;12049;51.068;3.688;2022-11-02T00:11:57;13.30;99.90
23738;DHT22;12049;51.068;3.688;2022-11-02T00:14:23;13.30;99.90
23738;DHT22;12049;51.068;3.688;2022-11-02T00:16:49;13.40;99.90
23738;DHT22;12049;51.068;3.688;2022-11-02T00:19:17;13.40;99.90
23738;DHT22;12049;51.068;3.688;2022-11-02T00:21:43;13.50;99.90
23738;DHT22;12049;51.068;3.688;2022-11-02T00:24:11;13.60;99.90
23738;DHT22;12049;51.068;3.688;2022-11-02T00:26:40;13.50;99.90
23738;DHT22;12049;51.068;3.688;2022-11-02T00:29:06;13.40;99.90
23738;DHT22;12049;51.068;3.688;2022-11-02T00:31:32;13.30;99.90
23738;DHT22;12049;51.068;3.688;2022-11-02T00:33:58;13.30;99.90
23738;DHT22;12049;51.068;3.688;2022-11-02T00:36:24;13.30;99.90
23738;DHT22;12049;51.068;3.688;2022-11-02T00:38:49;13.30;99.90
23738;DHT22;12049;51.068;3.688;2022-11-02T00:41:16;13.30;99.90
23738;DHT22;12049;51.068;3.688;2022-11-02T00:43:42;13.20;99.90
23738;DHT22;12049;51.068;3.688;2022-11-02T00:46:07;13.30;99.90
23738;DHT22;12049;51.068;3.688;2022-11-02T00:48:33;13.40;99.90
23738;DHT22;12049;51.068;3.688;2022-11-02T00:50:58;13.30;99.90
23738;DHT22;12049;51.068;3.688;2022-11-02T00:53:23;13.40;99.90
23738;DHT22;12049;51.068;3.688;2022-11-02T00:55:49;13.30;99.90
23738;DHT22;12049;51.068;3.688;2022-11-02T00:58:15;13.40;99.90
23738;DHT22;12049;51.068;3.688;2022-11-02T01:00:41;13.30;99.90
23738;DHT22;12049;51.068;3.688;2022-11-02T01:03:06;13.30;99.90
23738;DHT22;12049;51.068;3.688;2022-11-02T01:05:32;13.30;99.90
23738;DHT22;12049;51.068;3.688;2022-11-02T01:07:57;13.30;99.90
23738;DHT22;12049;51.068;3.688;2022-11-02T01:10:23;13.30;99.90
23738;DHT22;12049;51.068;3.688;2022-11-02T01:12:50;13.30;99.90
23738;DHT22;12049;51.068;3.688;2022-11-02T01:15:16;13.30;99.90
23738;DHT22;12049;51.068;3.688;2022-11-02T01:17:41;13.30;99.90
23738;DHT22;12049;51.068;3.688;2022-11-02T01:20:07;13.20;99.90
23738;DHT22;12049;51.068;3.688;2022-11-02T01:22:32;13.30;99.90
23738;DHT22;12049;51.068;3.688;2022-11-02T01:24:58;13.30;99.90
23738;DHT22;12049;51.068;3.688;2022-11-02T01:27:23;13.20;99.90
23738;DHT22;12049;51.068;3.688;2022-11-02T01:29:49;13.30;99.90
23738;DHT22;12049;51.068;3.688;2022-11-02T01:32:14;13.20;99.90
23738;DHT22;12049;51.068;3.688;2022-11-02T01:34:40;13.20;99.90
23738;DHT22;12049;51.068;3.688;2022-11-02T01:37:05;13.30;99.90
23738;DHT22;12049;51.068;3.688;2022-11-02T01:39:31;13.20;99.90
23738;DHT22;12049;51.068;3.688;2022-11-02T01:41:56;13.20;99.90
23738;DHT22;12049;51.068;3.688;2022-11-02T01:44:25;13.20;99.90
23738;DHT22;12049;51.068;3.688;2022-11-02T01:46:52;13.10;99.90
23738;DHT22;12049;51.068;3.688;2022-11-02T01:49:19;13.10;99.90
23738;DHT22;12049;51.068;3.688;2022-11-02T01:51:50;13.20;99.90
23738;DHT22;12049;51.068;3.688;2022-11-02T01:54:21;13.20;99.90
23738;DHT22;12049;51.068;3.688;2022-11-02T01:56:51;13.20;99.90
23738;DHT22;12049;51.068;3.688;2022-11-02T01:59:22;13.20;99.90
23738;DHT22;12049;51.068;3.688;2022-11-02T02:01:49;13.10;99.90
23738;DHT22;12049;51.068;3.688;2022-11-02T02:04:14;13.00;99.90
23738;DHT22;12049;51.068;3.688;2022-11-02T02:06:40;12.90;99.90
23738;DHT22;12049;51.068;3.688;2022-11-02T02:09:06;12.90;99.90
23738;DHT22;12049;51.068;3.688;2022-11-02T02:11:33;12.80;99.90
23738;DHT22;12049;51.068;3.688;2022-11-02T02:14:07;12.90;99.90
23738;DHT22;12049;51.068;3.688;2022-11-02T02:19:03;13.00;99.90
23738;DHT22;12049;51.068;3.688;2022-11-02T02:21:41;13.00;99.90
23738;DHT22;12049;51.068;3.688;2022-11-02T02:24:25;13.10;99.90
23738;DHT22;12049;51.068;3.688;2022-11-02T02:27:04;13.20;99.90
23738;DHT22;12049;51.068;3.688;2022-11-02T02:32:38;13.10;99.90
23738;DHT22;12049;51.068;3.688;2022-11-02T02:37:41;13.10;99.90
23738;DHT22;12049;51.068;3.688;2022-11-02T02:40:15;13.20;99.90
23738;DHT22;12049;51.068;3.688;2022-11-02T02:42:47;13.20;99.90
23738;DHT22;12049;51.068;3.688;2022-11-02T02:45:23;13.20;99.90
23738;DHT22;12049;51.068;3.688;2022-11-02T02:47:53;13.30;99.90
23738;DHT22;12049;51.068;3.688;2022-11-02T02:50:30;13.30;99.90
23738;DHT22;12049;51.068;3.688;2022-11-02T02:52:57;13.30;99.90
23738;DHT22;12049;51.068;3.688;2022-11-02T02:55:30;13.30;99.90
23738;DHT22;12049;51.068;3.688;2022-11-02T02:57:57;13.30;99.90
23738;DHT22;12049;51.068;3.688;2022-11-02T03:00:24;13.20;99.90
23738;DHT22;12049;51.068;3.688;2022-11-02T03:02:50;13.30;99.90
23738;DHT22;12049;51.068;3.688;2022-11-02T03:05:31;13.30;99.90
23738;DHT22;12049;51.068;3.688;2022-11-02T03:08:05;13.40;99.90
23738;DHT22;12049;51.068;3.688;2022-11-02T03:10:34;13.40;99.90
23738;DHT22;12049;51.068;3.688;2022-11-02T03:15:43;13.30;99.90
23738;DHT22;12049;51.068;3.688;2022-11-02T03:25:55;13.30;99.90
23738;DHT22;12049;51.068;3.688;2022-11-02T03:31:08;13.20;99.90
23738;DHT22;12049;51.068;3.688;2022-11-02T03:33:42;13.30;99.90
23738;DHT22;12049;51.068;3.688;2022-11-02T03:36:15;13.10;99.90
23738;DHT22;12049;51.068;3.688;2022-11-02T03:38:43;13.10;99.90
23738;DHT22;12049;51.068;3.688;2022-11-02T03:41:09;13.10;99.90
23738;DHT22;12049;51.068;3.688;2022-11-02T03:43:35;13.10;99.90
23738;DHT22;12049;51.068;3.688;2022-11-02T03:46:03;12.90;99.90
23738;DHT22;12049;51.068;3.688;2022-11-02T03:48:31;13.00;99.90
23738;DHT22;12049;51.068;3.688;2022-11-02T03:51:02;13.20;99.90
23738;DHT22;12049;51.068;3.688;2022-11-02T03:53:51;13.10;99.90
23738;DHT22;12049;51.068;3.688;2022-11-02T03:56:20;13.00;99.90
23738;DHT22;12049;51.068;3.688;2022-11-02T03:58:46;13.00;99.90
23738;DHT22;12049;51.068;3.688;2022-11-02T04:01:11;13.00;99.90
23738;DHT22;12049;51.068;3.688;2022-11-02T04:03:38;13.00;99.90
23738;DHT22;12049;51.068;3.688;2022-11-02T04:06:04;13.00;99.90
23738;DHT22;12049;51.068;3.688;2022-11-02T04:08:35;13.00;99.90
23738;DHT22;12049;51.068;3.688;2022-11-02T04:11:01;12.90;99.90
23738;DHT22;12049;51.068;3.688;2022-11-02T04:13:45;12.80;99.90
23738;DHT22;12049;51.068;3.688;2022-11-02T04:16:29;12.80;99.90
23738;DHT22;12049;51.068;3.688;2022-11-02T04:18:54;12.90;99.90
23738;DHT22;12049;51.068;3.688;2022-11-02T04:21:40;12.90;99.90
23738;DHT22;12049;51.068;3.688;2022-11-02T04:24:26;13.10;99.90
23738;DHT22;12049;51.068;3.688;2022-11-02T04:27:10;12.90;99.90
23738;DHT22;12049;51.068;3.688;2022-11-02T04:29:36;12.90;99.90
23738;DHT22;12049;51.068;3.688;2022-11-02T04:32:01;12.90;99.90
23738;DHT22;12049;51.068;3.688;2022-11-02T04:34:26;12.90;99.90
23738;DHT22;12049;51.068;3.688;2022-11-02T04:36:55;12.80;99.90
23738;DHT22;12049;51.068;3.688;2022-11-02T04:39:21;12.80;99.90
23738;DHT22;12049;51.068;3.688;2022-11-02T04:41:46;12.90;99.90
23738;DHT22;12049;51.068;3.688;2022-11-02T04:44:12;12.80;99.90
23738;DHT22;12049;51.068;3.688;2022-11-02T04:46:42;12.80;99.90
23738;DHT22;12049;51.068;3.688;2022-11-02T04:49:07;12.90;99.90
23738;DHT22;12049;51.068;3.688;2022-11-02T04:51:33;12.70;99.90
23738;DHT22;12049;51.068;3.688;2022-11-02T04:53:59;12.80;99.90
23738;DHT22;12049;51.068;3.688;2022-11-02T04:56:25;12.90;99.90
23738;DHT22;12049;51.068;3.688;2022-11-02T04:58:52;12.80;99.90
23738;DHT22;12049;51.068;3.688;2022-11-02T05:01:17;12.80;99.90
23738;DHT22;12049;51.068;3.688;2022-11-02T05:03:47;12.80;99.90
23738;DHT22;12049;51.068;3.688;2022-11-02T05:06:13;12.80;99.90
23738;DHT22;12049;51.068;3.688;2022-11-02T05:08:39;12.80;99.90
23738;DHT22;12049;51.068;3.688;2022-11-02T05:11:04;12.90;99.90
23738;DHT22;12049;51.068;3.688;2022-11-02T05:13:30;12.80;99.90
23738;DHT22;12049;51.068;3.688;2022-11-02T05:15:56;12.80;99.90
23738;DHT22;12049;51.068;3.688;2022-11-02T05:18:22;12.80;99.90
23738;DHT22;12049;51.068;3.688;2022-11-02T05:20:51;12.80;99.90
23738;DHT22;12049;51.068;3.688;2022-11-02T05:23:17;12.80;99.90
23738;DHT22;12049;51.068;3.688;2022-11-02T05:25:50;12.80;99.90
23738;DHT22;12049;51.068;3.688;2022-11-02T05:28:15;12.80;99.90
23738;DHT22;12049;51.068;3.688;2022-11-02T05:30:41;12.70;99.90
23738;DHT22;12049;51.068;3.688;2022-11-02T05:33:06;12.70;99.90
23738;DHT22;12049;51.068;3.688;2022-11-02T05:35:32;12.60;99.90
23738;DHT22;12049;51.068;3.688;2022-11-02T05:37:57;12.70;99.90
23738;DHT22;12049;51.068;3.688;2022-11-02T05:40:23;12.60;99.90
23738;DHT22;12049;51.068;3.688;2022-11-02T05:42:48;12.70;99.90
23738;DHT22;12049;51.068;3.688;2022-11-02T05:45:14;12.70;99.90
23738;DHT22;12049;51.068;3.688;2022-11-02T05:47:39;12.70;99.90
23738;DHT22;12049;51.068;3.688;2022-11-02T05:50:08;12.80;99.90
23738;DHT22;12049;51.068;3.688;2022-11-02T05:52:35;12.70;99.90
23738;DHT22;12049;51.068;3.688;2022-11-02T05:55:00;12.70;99.90
23738;DHT22;12049;51.068;3.688;2022-11-02T05:57:26;12.70;99.90
23738;DHT22;12049;51.068;3.688;2022-11-02T05:59:51;12.60;99.90
23738;DHT22;12049;51.068;3.688;2022-11-02T06:02:17;12.70;99.90
23738;DHT22;12049;51.068;3.688;2022-11-02T06:04:42;12.60;99.90
23738;DHT22;12049;51.068;3.688;2022-11-02T06:07:08;12.70;99.90
23738;DHT22;12049;51.068;3.688;2022-11-02T06:09:33;12.70;99.90
23738;DHT22;12049;51.068;3.688;2022-11-02T06:11:59;12.60;99.90
23738;DHT22;12049;51.068;3.688;2022-11-02T06:14:24;12.50;99.90
23738;DHT22;12049;51.068;3.688;2022-11-02T06:16:50;12.50;99.90
23738;DHT22;12049;51.068;3.688;2022-11-02T06:19:15;12.50;99.90
23738;DHT22;12049;51.068;3.688;2022-11-02T06:21:41;12.50;99.90
23738;DHT22;12049;51.068;3.688;2022-11-02T06:24:06;12.50;99.90
23738;DHT22;12049;51.068;3.688;2022-11-02T06:26:32;12.50;99.90
23738;DHT22;12049;51.068;3.688;2022-11-02T06:28:58;12.40;99.90
23738;DHT22;12049;51.068;3.688;2022-11-02T06:31:23;12.50;99.90
23738;DHT22;12049;51.068;3.688;2022-11-02T06:33:49;12.50;99.90
23738;DHT22;12049;51.068;3.688;2022-11-02T06:36:14;12.50;99.90
23738;DHT22;12049;51.068;3.688;2022-11-02T06:38:40;12.50;99.90
23738;DHT22;12049;51.068;3.688;2022-11-02T06:41:09;12.60;99.90
23738;DHT22;12049;51.068;3.688;2022-11-02T06:43:34;12.50;99.90
23738;DHT22;12049;51.068;3.688;2022-11-02T06:46:02;12.60;99.90
23738;DHT22;12049;51.068;3.688;2022-11-02T06:48:28;12.60;99.90
23738;DHT22;12049;51.068;3.688;2022-11-02T06:50:54;12.50;99.90
23738;DHT22;12049;51.068;3.688;2022-11-02T06:53:19;12.50;99.90
23738;DHT22;12049;51.068;3.688;2022-11-02T06:55:49;12.50;99.90
23738;DHT22;12049;51.068;3.688;2022-11-02T06:58:15;12.40;99.90
23738;DHT22;12049;51.068;3.688;2022-11-02T07:00:40;12.50;99.90
23738;DHT22;12049;51.068;3.688;2022-11-02T07:03:06;12.50;99.90
23738;DHT22;12049;51.068;3.688;2022-11-02T07:05:33;12.50;99.90
23738;DHT22;12049;51.068;3.688;2022-11-02T07:07:59;12.50;99.90
23738;DHT22;12049;51.068;3.688;2022-11-02T07:10:25;12.60;99.90
23738;DHT22;12049;51.068;3.688;2022-11-02T07:12:51;12.50;99.90
23738;DHT22;12049;51.068;3.688;2022-11-02T07:15:18;12.60;99.90
23738;DHT22;12049;51.068;3.688;2022-11-02T07:17:46;12.60;99.90
23738;DHT22;12049;51.068;3.688;2022-11-02T07:20:12;12.60;99.90
23738;DHT22;12049;51.068;3.688;2022-11-02T07:22:41;12.70;99.90
23738;DHT22;12049;51.068;3.688;2022-11-02T07:25:07;12.70;99.90
23738;DHT22;12049;51.068;3.688;2022-11-02T07:27:39;12.80;99.90
23738;DHT22;12049;51.068;3.688;2022-11-02T07:30:05;12.80;99.90
23738;DHT22;12049;51.068;3.688;2022-11-02T07:32:37;12.90;99.90
23738;DHT22;12049;51.068;3.688;2022-11-02T07:35:06;12.90;99.90
23738;DHT22;12049;51.068;3.688;2022-11-02T07:37:35;13.00;99.90
23738;DHT22;12049;51.068;3.688;2022-11-02T07:40:01;13.00;99.90
23738;DHT22;12049;51.068;3.688;2022-11-02T07:42:27;13.30;99.90
23738;DHT22;12049;51.068;3.688;2022-11-02T07:44:52;13.40;99.90
23738;DHT22;12049;51.068;3.688;2022-11-02T07:47:18;13.50;99.90
23738;DHT22;12049;51.068;3.688;2022-11-02T07:49:46;13.60;99.90
23738;DHT22;12049;51.068;3.688;2022-11-02T07:52:14;13.60;99.90
23738;DHT22;12049;51.068;3.688;2022-11-02T07:57:26;13.60;99.90
23738;DHT22;12049;51.068;3.688;2022-11-02T07:59:54;13.70;99.90
23738;DHT22;12049;51.068;3.688;2022-11-02T08:02:19;13.80;99.90
23738;DHT22;12049;51.068;3.688;2022-11-02T08:04:45;13.80;99.90
23738;DHT22;12049;51.068;3.688;2022-11-02T08:07:10;13.80;99.90
23738;DHT22;12049;51.068;3.688;2022-11-02T08:09:36;13.90;99.90
23738;DHT22;12049;51.068;3.688;2022-11-02T08:12:02;13.90;99.90
23738;DHT22;12049;51.068;3.688;2022-11-02T08:14:27;14.10;99.90
23738;DHT22;12049;51.068;3.688;2022-11-02T08:16:53;14.20;99.90
23738;DHT22;12049;51.068;3.688;2022-11-02T08:19:19;14.30;99.90
23738;DHT22;12049;51.068;3.688;2022-11-02T08:21:44;14.30;99.90
23738;DHT22;12049;51.068;3.688;2022-11-02T08:24:10;14.40;99.90
23738;DHT22;12049;51.068;3.688;2022-11-02T08:26:35;14.60;99.90
23738;DHT22;12049;51.068;3.688;2022-11-02T08:29:01;15.00;99.90
23738;DHT22;12049;51.068;3.688;2022-11-02T08:31:26;15.30;99.90
23738;DHT22;12049;51.068;3.688;2022-11-02T08:33:52;15.40;99.90
23738;DHT22;12049;51.068;3.688;2022-11-02T08:36:18;15.50;99.90
23738;DHT22;12049;51.068;3.688;2022-11-02T08:38:43;15.60;99.90
23738;DHT22;12049;51.068;3.688;2022-11-02T08:41:09;15.80;99.90
23738;DHT22;12049;51.068;3.688;2022-11-02T08:43:34;15.80;99.90
23738;DHT22;12049;51.068;3.688;2022-11-02T08:46:00;15.90;99.90
23738;DHT22;12049;51.068;3.688;2022-11-02T08:48:27;15.80;99.90
23738;DHT22;12049;51.068;3.688;2022-11-02T08:50:52;15.90;99.90
23738;DHT22;12049;51.068;3.688;2022-11-02T08:53:18;15.90;99.90
23738;DHT22;12049;51.068;3.688;2022-11-02T08:55:43;15.90;99.90
23738;DHT22;12049;51.068;3.688;2022-11-02T08:58:09;16.10;99.90
23738;DHT22;12049;51.068;3.688;2022-11-02T09:00:35;16.30;99.90
23738;DHT22;12049;51.068;3.688;2022-11-02T09:03:01;16.20;99.90
23738;DHT22;12049;51.068;3.688;2022-11-02T09:05:27;16.40;99.90
23738;DHT22;12049;51.068;3.688;2022-11-02T09:07:54;16.60;99.90
23738;DHT22;12049;51.068;3.688;2022-11-02T09:10:19;17.00;99.90
23738;DHT22;12049;51.068;3.688;2022-11-02T09:12:45;17.40;99.90
23738;DHT22;12049;51.068;3.688;2022-11-02T09:15:10;18.20;99.90
23738;DHT22;12049;51.068;3.688;2022-11-02T09:17:36;19.30;99.90
23738;DHT22;12049;51.068;3.688;2022-11-02T09:20:01;20.20;99.90
23738;DHT22;12049;51.068;3.688;2022-11-02T09:22:29;21.40;99.90
23738;DHT22;12049;51.068;3.688;2022-11-02T09:24:55;22.50;99.90
23738;DHT22;12049;51.068;3.688;2022-11-02T09:27:20;23.20;99.90
23738;DHT22;12049;51.068;3.688;2022-11-02T09:29:46;24.10;99.90
23738;DHT22;12049;51.068;3.688;2022-11-02T09:32:11;24.80;99.90
23738;DHT22;12049;51.068;3.688;2022-11-02T09:34:37;25.50;99.90
23738;DHT22;12049;51.068;3.688;2022-11-02T09:37:02;26.00;99.90
23738;DHT22;12049;51.068;3.688;2022-11-02T09:39:28;26.10;99.90
23738;DHT22;12049;51.068;3.688;2022-11-02T09:47:10;27.20;99.90
23738;DHT22;12049;51.068;3.688;2022-11-02T09:49:41;27.30;99.90
23738;DHT22;12049;51.068;3.688;2022-11-02T09:52:25;27.70;99.90
23738;DHT22;12049;51.068;3.688;2022-11-02T09:54:55;27.60;99.90
23738;DHT22;12049;51.068;3.688;2022-11-02T09:57:26;27.60;99.90
23738;DHT22;12049;51.068;3.688;2022-11-02T09:59:53;27.90;99.90
23738;DHT22;12049;51.068;3.688;2022-11-02T10:02:23;27.90;99.90
23738;DHT22;12049;51.068;3.688;2022-11-02T10:05:17;28.00;99.90
23738;DHT22;12049;51.068;3.688;2022-11-02T10:08:07;28.20;99.90
23738;DHT22;12049;51.068;3.688;2022-11-02T10:10:48;28.00;99.90
23738;DHT22;12049;51.068;3.688;2022-11-02T10:13:30;27.40;99.90
23738;DHT22;12049;51.068;3.688;2022-11-02T10:16:42;26.50;99.90
23738;DHT22;12049;51.068;3.688;2022-11-02T10:18:52;25.50;99.90
23738;DHT22;12049;51.068;3.688;2022-11-02T10:21:29;24.50;99.90
23738;DHT22;12049;51.068;3.688;2022-11-02T10:24:02;23.50;99.90
23738;DHT22;12049;51.068;3.688;2022-11-02T10:26:32;23.40;99.90
23738;DHT22;12049;51.068;3.688;2022-11-02T10:29:17;23.80;99.90
23738;DHT22;12049;51.068;3.688;2022-11-02T10:31:50;23.60;99.90
23738;DHT22;12049;51.068;3.688;2022-11-02T10:34:25;22.90;99.90
23738;DHT22;12049;51.068;3.688;2022-11-02T10:41:49;22.70;99.90
23738;DHT22;12049;51.068;3.688;2022-11-02T10:46:45;22.50;99.90
23738;DHT22;12049;51.068;3.688;2022-11-02T10:49:20;22.20;99.90
23738;DHT22;12049;51.068;3.688;2022-11-02T10:51:48;21.80;99.90
23738;DHT22;12049;51.068;3.688;2022-11-02T10:54:14;21.60;99.90
23738;DHT22;12049;51.068;3.688;2022-11-02T10:56:40;21.50;99.90
23738;DHT22;12049;51.068;3.688;2022-11-02T10:59:19;21.30;99.90
23738;DHT22;12049;51.068;3.688;2022-11-02T11:04:24;21.80;99.90
23738;DHT22;12049;51.068;3.688;2022-11-02T11:06:49;22.10;99.90
23738;DHT22;12049;51.068;3.688;2022-11-02T11:09:16;22.40;99.90
23738;DHT22;12049;51.068;3.688;2022-11-02T11:14:20;23.30;99.90
23738;DHT22;12049;51.068;3.688;2022-11-02T11:17:12;23.90;99.90
23738;DHT22;12049;51.068;3.688;2022-11-02T11:19:38;24.40;99.90
23738;DHT22;12049;51.068;3.688;2022-11-02T11:27:53;24.30;99.90
23738;DHT22;12049;51.068;3.688;2022-11-02T11:30:35;24.30;99.90
23738;DHT22;12049;51.068;3.688;2022-11-02T11:33:02;24.50;99.90
23738;DHT22;12049;51.068;3.688;2022-11-02T11:35:32;24.30;99.90
23738;DHT22;12049;51.068;3.688;2022-11-02T11:38:02;24.40;99.90
23738;DHT22;12049;51.068;3.688;2022-11-02T11:40:33;24.40;99.90
23738;DHT22;12049;51.068;3.688;2022-11-02T11:43:00;24.50;99.90
23738;DHT22;12049;51.068;3.688;2022-11-02T11:45:26;24.50;99.90
23738;DHT22;12049;51.068;3.688;2022-11-02T11:47:53;24.30;99.90
23738;DHT22;12049;51.068;3.688;2022-11-02T11:50:20;24.00;99.90
23738;DHT22;12049;51.068;3.688;2022-11-02T11:52:46;23.80;99.90
23738;DHT22;12049;51.068;3.688;2022-11-02T11:55:25;23.30;99.90
23738;DHT22;12049;51.068;3.688;2022-11-02T12:00:36;23.10;99.90
23738;DHT22;12049;51.068;3.688;2022-11-02T12:03:08;23.10;99.90
23738;DHT22;12049;51.068;3.688;2022-11-02T12:19:08;22.30;99.90
23738;DHT22;12049;51.068;3.688;2022-11-02T12:21:47;22.00;99.90
23738;DHT22;12049;51.068;3.688;2022-11-02T12:37:16;21.80;99.90
23738;DHT22;12049;51.068;3.688;2022-11-02T12:39:47;21.90;99.90
23738;DHT22;12049;51.068;3.688;2022-11-02T12:44:57;21.60;99.90
23738;DHT22;12049;51.068;3.688;2022-11-02T12:47:30;21.70;99.90
23738;DHT22;12049;51.068;3.688;2022-11-02T12:54:53;21.50;99.90
23738;DHT22;12049;51.068;3.688;2022-11-02T12:57:23;21.40;99.90
23738;DHT22;12049;51.068;3.688;2022-11-02T12:59:52;21.10;99.90
23738;DHT22;12049;51.068;3.688;2022-11-02T13:04:57;20.80;99.90
23738;DHT22;12049;51.068;3.688;2022-11-02T13:07:26;20.70;99.90
23738;DHT22;12049;51.068;3.688;2022-11-02T13:09:58;20.40;99.90
23738;DHT22;12049;51.068;3.688;2022-11-02T13:12:26;20.30;99.90
23738;DHT22;12049;51.068;3.688;2022-11-02T13:14:54;19.90;99.90
23738;DHT22;12049;51.068;3.688;2022-11-02T13:22:12;19.60;99.90
23738;DHT22;12049;51.068;3.688;2022-11-02T13:24:40;19.60;99.90
23738;DHT22;12049;51.068;3.688;2022-11-02T13:27:23;19.40;99.90
23738;DHT22;12049;51.068;3.688;2022-11-02T13:29:49;19.20;99.90
23738;DHT22;12049;51.068;3.688;2022-11-02T13:35:02;18.80;99.90
23738;DHT22;12049;51.068;3.688;2022-11-02T13:37:31;18.70;99.90
23738;DHT22;12049;51.068;3.688;2022-11-02T13:40:00;18.90;99.90
23738;DHT22;12049;51.068;3.688;2022-11-02T13:45:05;18.50;99.90
23738;DHT22;12049;51.068;3.688;2022-11-02T13:50:19;18.30;99.90
23738;DHT22;12049;51.068;3.688;2022-11-02T13:52:50;18.30;99.90
23738;DHT22;12049;51.068;3.688;2022-11-02T13:55:20;18.20;99.90
23738;DHT22;12049;51.068;3.688;2022-11-02T13:57:47;18.10;99.90
23738;DHT22;12049;51.068;3.688;2022-11-02T14:00:35;18.00;99.90
23738;DHT22;12049;51.068;3.688;2022-11-02T14:05:34;17.90;99.90
23738;DHT22;12049;51.068;3.688;2022-11-02T14:08:08;17.70;99.90
23738;DHT22;12049;51.068;3.688;2022-11-02T14:10:35;17.40;99.90
23738;DHT22;12049;51.068;3.688;2022-11-02T14:13:02;17.30;99.90
23738;DHT22;12049;51.068;3.688;2022-11-02T14:15:36;17.40;99.90
23738;DHT22;12049;51.068;3.688;2022-11-02T14:20:44;16.90;99.90
23738;DHT22;12049;51.068;3.688;2022-11-02T14:25:49;16.80;99.90
23738;DHT22;12049;51.068;3.688;2022-11-02T14:35:54;16.80;99.90
23738;DHT22;12049;51.068;3.688;2022-11-02T14:48:59;16.50;99.90
23738;DHT22;12049;51.068;3.688;2022-11-02T14:51:30;16.60;99.90
23738;DHT22;12049;51.068;3.688;2022-11-02T14:54:03;16.70;99.90
23738;DHT22;12049;51.068;3.688;2022-11-02T14:56:53;16.70;99.90
23738;DHT22;12049;51.068;3.688;2022-11-02T14:59:20;16.80;99.90
23738;DHT22;12049;51.068;3.688;2022-11-02T15:02:05;16.70;99.90
23738;DHT22;12049;51.068;3.688;2022-11-02T15:04:33;16.70;99.90
23738;DHT22;12049;51.068;3.688;2022-11-02T15:06:59;16.60;99.90
23738;DHT22;12049;51.068;3.688;2022-11-02T15:10:00;16.50;99.90
23738;DHT22;12049;51.068;3.688;2022-11-02T15:12:28;16.70;99.90
23738;DHT22;12049;51.068;3.688;2022-11-02T15:14:55;16.60;99.90
23738;DHT22;12049;51.068;3.688;2022-11-02T15:19:51;16.50;99.90
23738;DHT22;12049;51.068;3.688;2022-11-02T15:25:45;16.30;99.90
23738;DHT22;12049;51.068;3.688;2022-11-02T15:27:44;16.40;99.90
23738;DHT22;12049;51.068;3.688;2022-11-02T15:30:17;16.40;99.90
23738;DHT22;12049;51.068;3.688;2022-11-02T15:32:44;16.30;99.90
23738;DHT22;12049;51.068;3.688;2022-11-02T15:35:16;16.40;99.90
23738;DHT22;12049;51.068;3.688;2022-11-02T15:37:42;16.30;99.90
23738;DHT22;12049;51.068;3.688;2022-11-02T15:40:11;16.10;99.90
23738;DHT22;12049;51.068;3.688;2022-11-02T15:42:44;16.00;99.90
23738;DHT22;12049;51.068;3.688;2022-11-02T15:48:17;15.90;99.90
23738;DHT22;12049;51.068;3.688;2022-11-02T16:01:32;15.80;99.90
23738;DHT22;12049;51.068;3.688;2022-11-02T16:04:02;15.70;99.90
23738;DHT22;12049;51.068;3.688;2022-11-02T16:06:33;15.70;99.90
23738;DHT22;12049;51.068;3.688;2022-11-02T16:09:00;15.70;99.90
23738;DHT22;12049;51.068;3.688;2022-11-02T16:11:26;15.70;99.90
23738;DHT22;12049;51.068;3.688;2022-11-02T16:13:51;15.70;99.90
23738;DHT22;12049;51.068;3.688;2022-11-02T16:16:18;15.60;99.90
23738;DHT22;12049;51.068;3.688;2022-11-02T16:18:47;15.50;99.90
23738;DHT22;12049;51.068;3.688;2022-11-02T16:21:18;15.50;99.90
23738;DHT22;12049;51.068;3.688;2022-11-02T16:23:48;15.50;99.90
23738;DHT22;12049;51.068;3.688;2022-11-02T16:26:18;15.40;99.90
23738;DHT22;12049;51.068;3.688;2022-11-02T16:28:50;15.50;99.90
23738;DHT22;12049;51.068;3.688;2022-11-02T16:31:17;15.40;99.90
23738;DHT22;12049;51.068;3.688;2022-11-02T16:33:44;15.30;99.90
23738;DHT22;12049;51.068;3.688;2022-11-02T16:36:14;15.30;99.90
23738;DHT22;12049;51.068;3.688;2022-11-02T16:38:44;15.30;99.90
23738;DHT22;12049;51.068;3.688;2022-11-02T16:41:11;15.30;99.90
23738;DHT22;12049;51.068;3.688;2022-11-02T16:43:38;15.20;99.90
23738;DHT22;12049;51.068;3.688;2022-11-02T16:46:06;15.30;99.90
23738;DHT22;12049;51.068;3.688;2022-11-02T16:48:32;15.30;99.90
23738;DHT22;12049;51.068;3.688;2022-11-02T16:53:35;15.30;99.90
23738;DHT22;12049;51.068;3.688;2022-11-02T16:58:43;15.10;99.90
23738;DHT22;12049;51.068;3.688;2022-11-02T17:01:11;15.00;99.90
23738;DHT22;12049;51.068;3.688;2022-11-02T17:03:42;14.90;99.90
23738;DHT22;12049;51.068;3.688;2022-11-02T17:06:07;15.00;99.90
23738;DHT22;12049;51.068;3.688;2022-11-02T17:08:34;14.90;99.90
23738;DHT22;12049;51.068;3.688;2022-11-02T17:11:00;15.00;99.90
23738;DHT22;12049;51.068;3.688;2022-11-02T17:13:30;15.10;99.90
23738;DHT22;12049;51.068;3.688;2022-11-02T17:16:18;15.10;99.90
23738;DHT22;12049;51.068;3.688;2022-11-02T17:18:42;15.10;99.90
23738;DHT22;12049;51.068;3.688;2022-11-02T17:23:37;15.00;99.90
23738;DHT22;12049;51.068;3.688;2022-11-02T17:28:48;14.80;99.90
23738;DHT22;12049;51.068;3.688;2022-11-02T17:31:20;14.80;99.90
23738;DHT22;12049;51.068;3.688;2022-11-02T17:33:47;14.80;99.90
23738;DHT22;12049;51.068;3.688;2022-11-02T17:36:13;14.70;99.90
23738;DHT22;12049;51.068;3.688;2022-11-02T17:38:39;14.70;99.90
23738;DHT22;12049;51.068;3.688;2022-11-02T17:41:04;14.80;99.90
23738;DHT22;12049;51.068;3.688;2022-11-02T17:43:52;14.90;99.90
23738;DHT22;12049;51.068;3.688;2022-11-02T17:46:18;14.90;99.90
23738;DHT22;12049;51.068;3.688;2022-11-02T17:48:44;14.90;99.90
23738;DHT22;12049;51.068;3.688;2022-11-02T17:51:12;14.90;99.90
23738;DHT22;12049;51.068;3.688;2022-11-02T17:53:39;14.80;99.90
23738;DHT22;12049;51.068;3.688;2022-11-02T17:56:05;14.90;99.90
23738;DHT22;12049;51.068;3.688;2022-11-02T17:58:31;14.80;99.90
23738;DHT22;12049;51.068;3.688;2022-11-02T18:00:56;14.70;99.90
23738;DHT22;12049;51.068;3.688;2022-11-02T18:03:22;14.60;99.90
23738;DHT22;12049;51.068;3.688;2022-11-02T18:05:47;14.70;99.90
23738;DHT22;12049;51.068;3.688;2022-11-02T18:08:15;14.70;99.90
23738;DHT22;12049;51.068;3.688;2022-11-02T18:10:42;14.80;99.90
23738;DHT22;12049;51.068;3.688;2022-11-02T18:13:11;14.70;99.90
23738;DHT22;12049;51.068;3.688;2022-11-02T18:15:38;14.70;99.90